Meteo Giornale » Osservazioni meteo Italia » Lamezia Terme

ore: 05:50 - Osservazioni Meteo Lamezia Terme
Lat. 38° 54' N Lon. 16° 15' E Alt. 15 metri s.l.m.

sereno Europe/Rome

28 °C

Sereno

Temp. 24 Ore

22 °C

32 °C

Nord-Est

22.2 Km/h

Dew point 16 °C

Umidità 48 %

Visibilità  10 Km

Il sole sorge alle ore 06:09

Il sole tramonta alle ore 19:47

Data e Ora Cielo e Fenomeni T °C DP °C Um. % Pres. hPa Vis. km Vento km/h
Oggi h: 05:50 sereno Sereno 28 16 48 1011 10 NE 22.2
Oggi h: 05:20 sereno Sereno 29 16 45 1011 10 NE 22.2
Oggi h: 04:50 sereno Sereno 28 16 48 1011 10 NE 22.2
Oggi h: 04:20 sereno Sereno 28 16 48 1011 10 NE 20.3
Oggi h: 03:50 sereno Sereno 28 17 51 1011 10 NE 18.5
Oggi h: 03:20 sereno Sereno 28 16 48 1012 10 NE 18.5
Oggi h: 02:50 sereno Sereno 26 17 57 1012 10 E/NE 16.7
Oggi h: 02:20 sereno Sereno 25 18 65 1012 10 E/NE 14.8
Oggi h: 01:50 sereno Sereno 27 18 57 1012 10 E/NE 16.7
Oggi h: 01:20 sereno Sereno 28 18 54 1012 10 NE 16.7
Oggi h: 00:50 sereno Sereno 27 17 54 1012 10 E/NE 13
Oggi h: 00:20 sereno Sereno 26 17 57 1012 10 E/NE 14.8
Ieri h: 23:50 sereno Sereno 26 18 61 1012 10 E/NE 13
Ieri h: 23:20 sereno Sereno 25 19 69 1013 10 E/NE 11.1
Ieri h: 22:50 sereno Sereno 25 20 73 1013 10 E/NE 9.3
Ieri h: 22:20 sereno Sereno 25 21 78 1013 10 E/NE 9.3
Ieri h: 21:50 sereno Sereno 25 21 78 1013 10 E 7.4
Ieri h: 21:20 sereno Sereno 26 21 73 1013 10 N 5.5
Ieri h: 20:50 sereno Sereno 26 23 83 1013 10 N 5.5
Ieri h: 20:20 sereno Sereno 28 24 78 1012 10 N 1.8
Ieri h: 19:50 sereno Sereno 28 23 74 1013 10 N 3.7
Ieri h: 19:20 sereno Sereno 30 23 66 1012 10 N 3.7
Ieri h: 18:50 sereno Sereno 31 20 52 1012 10 N 5.5
Ieri h: 18:20 sereno Sereno 31 19 48 1012 10 O/NO 7.4
Ieri h: 17:50 sereno Sereno 31 20 52 1012 10 O 7.4
Ieri h: 17:20 sereno Sereno 31 21 55 1012 10 O/SO 9.3
Ieri h: 16:50 sereno Sereno 31 22 58 1013 10 O/SO 9.3
Ieri h: 16:20 sereno Sereno 31 23 62 1013 10 O 16.7
Ieri h: 15:50 sereno Sereno 31 23 62 1013 10 O 20.3
Ieri h: 15:20 sereno Sereno 32 21 52 1013 10 O 18.5
Ieri h: 14:50 sereno Sereno 32 20 49 1013 10 O 20.3
Ieri h: 14:20 sereno Sereno 31 21 55 1013 10 O 24
Ieri h: 13:50 sereno Sereno 31 21 55 1013 10 O 22.2
Ieri h: 13:20 sereno Sereno 32 21 52 1013 10 O 20.3
Ieri h: 12:50 sereno Sereno 31 21 55 1013 10 O 18.5
Ieri h: 12:20 sereno Sereno 31 20 52 1013 10 O 14.8
Ieri h: 11:50 sereno Sereno 31 23 62 1013 10 O 13
Ieri h: 11:20 sereno Sereno 30 23 66 1013 10 O 13
Ieri h: 10:50 sereno Sereno 30 23 66 1014 10 O/SO 13
Ieri h: 10:20 sereno Sereno 29 23 70 1014 10 O/SO 13
Ieri h: 09:50 sereno Sereno 29 23 70 1013 10 O/SO 13
Ieri h: 09:20 sereno Sereno 29 23 70 1013 10 O/SO 11.1
Ieri h: 08:50 sereno Sereno 28 23 74 1013 10 N 3.7
Ieri h: 08:20 poco_nuvoloso Poco Nuvoloso 28 23 74 1013 10 N 1.8
Ieri h: 07:50 poco_nuvoloso Poco Nuvoloso 24 23 94 1013 10 N 3.7
Ieri h: 07:20 sereno Sereno 23 22 94 1013 10 N 5.5
Ieri h: 06:50 poco_nuvoloso Poco Nuvoloso 22 21 94 1013 10 N 3.7